createdAt,value
2019-02-23T00:00:51.785Z,58.29
2019-02-23T00:01:51.785Z,57.88
2019-02-23T00:02:51.775Z,57.96
2019-02-23T00:03:51.792Z,58.92
2019-02-23T00:04:51.742Z,58.17
2019-02-23T00:05:51.738Z,57.96
2019-02-23T00:06:51.736Z,57.78
2019-02-23T00:07:51.714Z,58.29
2019-02-23T00:08:51.714Z,58.51
2019-02-23T00:09:53.512Z,58.09
2019-02-23T00:10:51.681Z,58.19
2019-02-23T00:11:51.673Z,58.72
2019-02-23T00:12:51.657Z,58.92
2019-02-23T00:13:51.650Z,58.92
2019-02-23T00:14:51.645Z,59.03
2019-02-23T00:15:51.629Z,59.14
2019-02-23T00:16:51.643Z,58.72
2019-02-23T00:17:51.615Z,57.88
2019-02-23T00:18:51.599Z,59.03
2019-02-23T00:19:51.591Z,58.40
2019-02-23T00:20:51.579Z,57.88
2019-02-23T00:21:51.567Z,58.29
2019-02-23T00:22:51.549Z,57.98
2019-02-23T00:23:51.549Z,58.92
2019-02-23T00:24:51.538Z,58.51
2019-02-23T00:25:51.529Z,58.19
2019-02-23T00:26:51.544Z,58.19
2019-02-23T00:27:51.503Z,58.40
2019-02-23T00:28:51.493Z,58.09
2019-02-23T00:29:51.495Z,58.19
2019-02-23T00:30:51.473Z,58.40
2019-02-23T00:31:51.477Z,58.11
2019-02-23T00:32:51.466Z,58.19
2019-02-23T00:33:51.441Z,58.72
2019-02-23T00:34:51.433Z,58.61
2019-02-23T00:35:51.421Z,58.40
2019-02-23T00:36:51.412Z,58.09
2019-02-23T00:37:51.403Z,58.92
2019-02-23T00:38:51.383Z,59.45
2019-02-23T00:39:51.417Z,59.24
2019-02-23T00:40:51.360Z,57.78
2019-02-23T00:41:51.365Z,57.88
2019-02-23T00:42:51.345Z,58.75
2019-02-23T00:43:51.347Z,58.82
2019-02-23T00:44:51.342Z,59.14
2019-02-23T00:45:51.316Z,58.82
2019-02-23T00:46:51.310Z,59.56
2019-02-23T00:47:51.301Z,59.66
2019-02-23T00:48:51.286Z,58.92
2019-02-23T00:49:51.283Z,58.82
2019-02-23T00:50:51.278Z,58.19
2019-02-23T00:51:51.961Z,58.95
2019-02-23T00:52:51.256Z,59.58
2019-02-23T00:53:53.015Z,60.00
2019-02-23T00:54:51.225Z,59.69
2019-02-23T00:55:51.213Z,59.06
2019-02-23T00:56:51.209Z,59.24
2019-02-23T00:57:51.203Z,58.19
2019-02-23T00:58:51.178Z,58.19
2019-02-23T00:59:51.171Z,57.98
2019-02-23T01:00:51.155Z,58.09
2019-02-23T01:01:51.161Z,58.29
2019-02-23T01:02:51.171Z,58.29
2019-02-23T01:03:53.029Z,58.19
2019-02-23T01:04:51.127Z,58.09
2019-02-23T01:05:51.117Z,58.29
2019-02-23T01:06:51.109Z,58.19
2019-02-23T01:07:51.080Z,58.33
2019-02-23T01:08:51.091Z,58.43
2019-02-23T01:09:51.072Z,58.53
2019-02-23T01:10:58.139Z,58.33
2019-02-23T01:11:52.049Z,57.98
2019-02-23T01:12:51.035Z,58.01
2019-02-23T01:13:51.036Z,58.33
2019-02-23T01:14:51.009Z,58.11
2019-02-23T01:15:51.003Z,58.22
2019-02-23T01:16:50.993Z,58.22
2019-02-23T01:17:50.989Z,58.29
2019-02-23T01:18:50.978Z,58.01
2019-02-23T01:19:50.959Z,58.22
2019-02-23T01:20:50.955Z,58.53
2019-02-23T01:21:50.942Z,58.43
2019-02-23T01:22:52.524Z,58.33
2019-02-23T01:23:50.929Z,58.53
2019-02-23T01:24:50.913Z,58.33
2019-02-23T01:25:50.947Z,58.33
2019-02-23T01:26:50.880Z,59.38
2019-02-23T01:27:52.514Z,59.27
2019-02-23T01:28:50.867Z,59.16
2019-02-23T01:29:50.848Z,58.95
2019-02-23T01:30:50.841Z,59.30
2019-02-23T01:31:50.835Z,59.82
2019-02-23T01:32:52.515Z,58.98
2019-02-23T01:33:50.817Z,59.27
2019-02-23T01:34:50.803Z,59.48
2019-02-23T01:35:50.798Z,59.06
2019-02-23T01:36:50.777Z,59.06
2019-02-23T01:37:50.767Z,59.27
2019-02-23T01:38:50.764Z,59.27
2019-02-23T01:39:50.759Z,60.21
2019-02-23T01:40:50.739Z,59.16
2019-02-23T01:41:50.731Z,59.48
2019-02-23T01:42:50.722Z,59.16
2019-02-23T01:43:50.778Z,59.79
2019-02-23T01:44:50.697Z,59.27
2019-02-23T01:45:50.681Z,59.58
2019-02-23T01:46:50.672Z,59.16
2019-02-23T01:47:52.522Z,59.19
2019-02-23T01:48:50.645Z,59.79
2019-02-23T01:49:58.483Z,59.82
2019-02-23T01:50:51.644Z,59.48
2019-02-23T01:51:50.643Z,58.95
2019-02-23T01:52:50.611Z,59.50
2019-02-23T01:53:50.599Z,59.61
2019-02-23T01:54:50.593Z,59.50
2019-02-23T01:55:50.593Z,59.82
2019-02-23T01:56:50.572Z,60.13
2019-02-23T01:57:50.558Z,59.92
2019-02-23T01:58:50.552Z,60.13
2019-02-23T01:59:50.533Z,59.69
2019-02-23T02:00:50.523Z,60.24
2019-02-23T02:01:52.025Z,60.24
2019-02-23T02:02:50.503Z,59.92
2019-02-23T02:03:50.493Z,60.45
2019-02-23T02:04:50.491Z,60.03
2019-02-23T02:05:50.471Z,60.13
2019-02-23T02:06:50.459Z,60.66
2019-02-23T02:07:52.017Z,60.66
2019-02-23T02:08:50.440Z,60.66
2019-02-23T02:09:50.435Z,60.24
2019-02-23T02:10:50.432Z,60.87
2019-02-23T02:11:50.409Z,60.77
2019-02-23T02:12:50.400Z,60.66
2019-02-23T02:13:50.383Z,60.55
2019-02-23T02:14:50.401Z,61.40
2019-02-23T02:15:50.371Z,61.21
2019-02-23T02:16:50.356Z,60.77
2019-02-23T02:17:52.025Z,62.02
2019-02-23T02:18:50.329Z,61.42
2019-02-23T02:19:50.332Z,61.00
2019-02-23T02:20:50.317Z,62.16
2019-02-23T02:21:50.306Z,62.47
2019-02-23T02:22:50.295Z,61.21
2019-02-23T02:23:50.281Z,62.16
2019-02-23T02:24:50.271Z,62.05
2019-02-23T02:25:50.261Z,62.47
2019-02-23T02:26:50.261Z,61.53
2019-02-23T02:27:50.253Z,61.32
2019-02-23T02:28:50.223Z,61.84
2019-02-23T02:29:50.221Z,62.82
2019-02-23T02:30:50.213Z,63.34
2019-02-23T02:31:50.201Z,62.40
2019-02-23T02:32:50.192Z,62.40
2019-02-23T02:33:50.173Z,63.76
2019-02-23T02:34:50.169Z,63.45
2019-02-23T02:35:50.154Z,62.18
2019-02-23T02:36:50.143Z,62.18
2019-02-23T02:37:50.148Z,63.13
2019-02-23T02:38:50.127Z,63.21
2019-02-23T02:39:50.113Z,62.29
2019-02-23T02:40:50.100Z,63.13
2019-02-23T02:41:50.091Z,62.50
2019-02-23T02:42:50.088Z,63.34
2019-02-23T02:43:50.080Z,62.60
2019-02-23T02:44:50.062Z,62.60
2019-02-23T02:45:50.044Z,62.60
2019-02-23T02:46:50.037Z,63.76
2019-02-23T02:47:50.022Z,62.99
2019-02-23T02:48:50.017Z,64.18
2019-02-23T02:49:50.023Z,63.13
2019-02-23T02:50:50.010Z,62.92
2019-02-23T02:51:49.989Z,63.02
2019-02-23T02:52:49.975Z,63.02
2019-02-23T02:53:50.015Z,63.65
2019-02-23T02:54:49.956Z,63.55
2019-02-23T02:55:49.941Z,63.87
2019-02-23T02:56:49.941Z,63.45
2019-02-23T02:57:49.923Z,63.55
2019-02-23T02:58:49.912Z,63.97
2019-02-23T02:59:49.902Z,63.58
2019-02-23T03:00:49.919Z,64.00
2019-02-23T03:01:49.880Z,63.76
2019-02-23T03:02:49.867Z,63.90
2019-02-23T03:03:49.857Z,64.63
2019-02-23T03:04:49.848Z,64.18
2019-02-23T03:05:49.845Z,64.60
2019-02-23T03:06:49.837Z,64.39
2019-02-23T03:07:49.824Z,63.87
2019-02-23T03:08:49.813Z,63.55
2019-02-23T03:09:49.791Z,63.97
2019-02-23T03:10:51.526Z,64.07
2019-02-23T03:11:49.769Z,64.53
2019-02-23T03:12:49.759Z,64.73
2019-02-23T03:13:49.751Z,64.53
2019-02-23T03:14:49.739Z,64.53
2019-02-23T03:15:49.734Z,64.73
2019-02-23T03:16:49.726Z,64.53
2019-02-23T03:17:49.718Z,64.73
2019-02-23T03:18:49.701Z,64.73
2019-02-23T03:19:49.707Z,65.26
2019-02-23T03:20:49.679Z,64.73
2019-02-23T03:21:49.673Z,64.95
2019-02-23T03:22:49.662Z,64.95
2019-02-23T03:23:49.663Z,64.31
2019-02-23T03:24:49.637Z,64.21
2019-02-23T03:25:49.631Z,64.53
2019-02-23T03:26:49.617Z,65.37
2019-02-23T03:27:49.603Z,65.05
2019-02-23T03:28:49.615Z,64.84
2019-02-23T03:29:49.728Z,65.05
2019-02-23T03:30:49.585Z,64.31
2019-02-23T03:31:49.564Z,65.16
2019-02-23T03:32:49.564Z,64.63
2019-02-23T03:33:49.549Z,64.63
2019-02-23T03:34:49.527Z,65.16
2019-02-23T03:35:49.527Z,65.16
2019-02-23T03:36:49.523Z,64.21
2019-02-23T03:37:49.497Z,64.73
2019-02-23T03:38:49.494Z,65.16
2019-02-23T03:39:49.483Z,64.53
2019-02-23T03:40:49.470Z,64.84
2019-02-23T03:41:49.477Z,65.47
2019-02-23T03:42:49.472Z,65.47
2019-02-23T03:43:49.444Z,65.16
2019-02-23T03:44:49.428Z,65.05
2019-02-23T03:45:49.423Z,65.29
2019-02-23T03:46:49.429Z,65.26
2019-02-23T03:47:49.399Z,64.87
2019-02-23T03:48:49.391Z,65.47
2019-02-23T03:49:51.023Z,65.37
2019-02-23T03:50:49.709Z,65.81
2019-02-23T03:51:49.357Z,66.10
2019-02-23T03:52:49.347Z,65.58
2019-02-23T03:53:49.341Z,66.52
2019-02-23T03:54:49.318Z,66.13
2019-02-23T03:55:49.306Z,65.37
2019-02-23T03:56:49.303Z,65.39
2019-02-23T03:57:49.294Z,65.89
2019-02-23T03:58:49.290Z,65.61
2019-02-23T03:59:49.284Z,65.58
2019-02-23T04:00:49.257Z,66.03
2019-02-23T04:01:49.243Z,66.52
2019-02-23T04:02:49.234Z,65.68
2019-02-23T04:03:49.231Z,65.61
2019-02-23T04:04:49.222Z,64.98
2019-02-23T04:05:49.205Z,65.08
2019-02-23T04:06:49.189Z,65.08
2019-02-23T04:07:49.186Z,65.58
2019-02-23T04:08:49.180Z,65.61
2019-02-23T04:09:49.169Z,65.68
2019-02-23T04:10:49.162Z,65.37
2019-02-23T04:11:51.015Z,65.39
2019-02-23T04:12:49.131Z,65.37
2019-02-23T04:13:51.037Z,65.50
2019-02-23T04:14:49.130Z,65.58
2019-02-23T04:15:51.053Z,65.08
2019-02-23T04:16:49.099Z,65.68
2019-02-23T04:17:49.085Z,65.16
2019-02-23T04:18:49.069Z,65.29
2019-02-23T04:19:49.061Z,65.47
2019-02-23T04:21:00.977Z,65.92
2019-02-23T04:21:50.040Z,65.78
2019-02-23T04:22:49.037Z,65.50
2019-02-23T04:23:49.018Z,65.19
2019-02-23T04:24:49.011Z,65.81
2019-02-23T04:25:48.997Z,65.37
2019-02-23T04:26:48.989Z,65.16
2019-02-23T04:27:48.973Z,65.19
2019-02-23T04:28:48.965Z,65.71
2019-02-23T04:29:48.967Z,64.95
2019-02-23T04:30:48.940Z,65.47
2019-02-23T04:31:48.941Z,65.58
2019-02-23T04:32:48.923Z,64.84
2019-02-23T04:33:48.927Z,65.37
2019-02-23T04:34:48.909Z,65.16
2019-02-23T04:35:48.902Z,65.05
2019-02-23T04:36:49.555Z,65.16
2019-02-23T04:37:48.879Z,65.05
2019-02-23T04:38:48.865Z,65.47
2019-02-23T04:39:48.856Z,64.53
2019-02-23T04:40:48.842Z,64.73
2019-02-23T04:41:48.834Z,65.16
2019-02-23T04:42:48.825Z,64.95
2019-02-23T04:43:48.813Z,64.81
2019-02-23T04:44:48.803Z,64.31
2019-02-23T04:45:48.811Z,65.05
2019-02-23T04:46:48.781Z,65.02
2019-02-23T04:47:48.766Z,64.53
2019-02-23T04:48:48.753Z,64.39
2019-02-23T04:49:48.752Z,64.95
2019-02-23T04:50:48.750Z,64.42
2019-02-23T04:51:48.745Z,64.70
2019-02-23T04:52:48.714Z,65.02
2019-02-23T04:53:48.708Z,65.12
2019-02-23T04:54:48.694Z,65.02
2019-02-23T04:55:48.691Z,64.84
2019-02-23T04:56:48.673Z,65.05
2019-02-23T04:57:48.676Z,64.84
2019-02-23T04:58:48.663Z,65.23
2019-02-23T04:59:48.641Z,65.05
2019-02-23T05:00:48.637Z,65.16
2019-02-23T05:01:48.620Z,65.37
2019-02-23T05:02:48.615Z,64.73
2019-02-23T05:03:48.610Z,65.44
2019-02-23T05:04:48.593Z,65.16
2019-02-23T05:05:48.656Z,64.73
2019-02-23T05:06:48.571Z,65.78
2019-02-23T05:07:48.563Z,65.26
2019-02-23T05:08:48.572Z,65.05
2019-02-23T05:09:48.541Z,64.21
2019-02-23T05:10:48.531Z,64.84
2019-02-23T05:11:51.415Z,65.16
2019-02-23T05:12:48.513Z,65.16
2019-02-23T05:13:48.502Z,64.84
2019-02-23T05:14:48.491Z,65.39
2019-02-23T05:15:48.482Z,65.50
2019-02-23T05:16:48.471Z,65.89
2019-02-23T05:17:48.461Z,65.50
2019-02-23T05:18:48.445Z,65.71
2019-02-23T05:19:48.442Z,66.03
2019-02-23T05:20:48.449Z,66.03
2019-02-23T05:21:48.420Z,66.13
2019-02-23T05:22:48.406Z,65.92
2019-02-23T05:23:48.401Z,66.24
2019-02-23T05:24:48.384Z,65.29
2019-02-23T05:25:48.387Z,65.50
2019-02-23T05:26:48.361Z,65.81
2019-02-23T05:27:48.357Z,66.55
2019-02-23T05:28:48.351Z,65.39
2019-02-23T05:29:48.334Z,65.39
2019-02-23T05:30:48.323Z,65.50
2019-02-23T05:31:48.348Z,66.13
2019-02-23T05:32:48.304Z,65.61
2019-02-23T05:33:48.291Z,65.50
2019-02-23T05:34:48.283Z,65.19
2019-02-23T05:35:48.278Z,65.19
2019-02-23T05:36:48.269Z,64.98
2019-02-23T05:37:48.266Z,64.73
2019-02-23T05:38:48.243Z,65.95
2019-02-23T05:39:48.229Z,65.29
2019-02-23T05:40:48.222Z,64.87
2019-02-23T05:41:48.222Z,64.98
2019-02-23T05:43:00.110Z,65.39
2019-02-23T05:43:49.190Z,65.39
2019-02-23T05:44:48.179Z,64.90
2019-02-23T05:45:48.169Z,64.69
2019-02-23T05:46:48.161Z,65.11
2019-02-23T05:47:48.148Z,65.42
2019-02-23T05:48:48.161Z,64.90
2019-02-23T05:49:48.140Z,64.79
2019-02-23T05:50:48.116Z,64.90
2019-02-23T05:51:48.122Z,64.87
2019-02-23T05:52:48.093Z,65.11
2019-02-23T05:53:48.085Z,65.39
2019-02-23T05:54:48.121Z,64.48
2019-02-23T05:55:48.070Z,65.19
2019-02-23T05:56:48.051Z,65.61
2019-02-23T05:57:48.041Z,65.50
2019-02-23T05:58:48.033Z,65.29
2019-02-23T05:59:48.023Z,65.53
2019-02-23T06:00:48.022Z,65.19
2019-02-23T06:01:48.016Z,65.22
2019-02-23T06:02:47.991Z,65.42
2019-02-23T06:03:47.979Z,64.90
2019-02-23T06:04:47.982Z,65.00
2019-02-23T06:05:47.961Z,64.58
2019-02-23T06:06:47.961Z,65.00
2019-02-23T06:07:47.965Z,65.22
2019-02-23T06:08:47.929Z,65.53
2019-02-23T06:09:47.922Z,65.39
2019-02-23T06:10:47.922Z,65.42
2019-02-23T06:11:47.902Z,64.76
2019-02-23T06:12:49.518Z,64.76
2019-02-23T06:13:47.879Z,64.87
2019-02-23T06:14:47.869Z,64.66
2019-02-23T06:15:47.861Z,64.76
2019-02-23T06:16:47.858Z,65.19
2019-02-23T06:17:47.890Z,64.76
2019-02-23T06:18:47.837Z,64.87
2019-02-23T06:19:49.517Z,64.45
2019-02-23T06:20:47.814Z,64.34
2019-02-23T06:21:53.539Z,64.45
2019-02-23T06:22:48.791Z,64.87
2019-02-23T06:23:47.776Z,64.45
2019-02-23T06:24:47.782Z,64.56
2019-02-23T06:25:47.753Z,64.56
2019-02-23T06:26:47.749Z,64.56
2019-02-23T06:27:47.740Z,64.66
2019-02-23T06:28:47.727Z,64.56
2019-02-23T06:29:47.732Z,64.14
2019-02-23T06:30:47.717Z,64.14
2019-02-23T06:31:47.708Z,64.56
2019-02-23T06:32:47.684Z,64.53
2019-02-23T06:33:47.677Z,64.24
2019-02-23T06:34:47.668Z,64.53
2019-02-23T06:35:47.657Z,63.90
2019-02-23T06:36:47.657Z,63.68
2019-02-23T06:37:47.643Z,63.68
2019-02-23T06:38:47.623Z,63.68
2019-02-23T06:39:47.617Z,64.11
2019-02-23T06:40:47.631Z,64.11
2019-02-23T06:41:47.594Z,64.21
2019-02-23T06:42:47.579Z,64.31
2019-02-23T06:43:47.570Z,64.11
2019-02-23T06:44:47.581Z,64.21
2019-02-23T06:45:47.561Z,63.76
2019-02-23T06:46:49.535Z,63.90
2019-02-23T06:47:47.587Z,63.58
2019-02-23T06:48:47.517Z,63.68
2019-02-23T06:49:47.508Z,64.11
2019-02-23T06:50:47.503Z,64.00
2019-02-23T06:51:47.486Z,63.79
2019-02-23T06:52:47.478Z,63.97
2019-02-23T06:53:47.490Z,64.50
2019-02-23T06:54:47.448Z,64.07
2019-02-23T06:55:47.443Z,63.13
2019-02-23T06:56:47.440Z,62.92
2019-02-23T06:57:47.420Z,63.02
2019-02-23T06:58:47.429Z,62.82
2019-02-23T06:59:47.402Z,62.92
2019-02-23T07:00:47.391Z,64.00
2019-02-23T07:01:47.379Z,63.90
2019-02-23T07:02:47.375Z,63.16
2019-02-23T07:03:47.384Z,63.55
2019-02-23T07:04:47.351Z,63.34
2019-02-23T07:05:47.339Z,62.71
2019-02-23T07:06:47.336Z,62.82
2019-02-23T07:07:47.346Z,63.21
2019-02-23T07:08:47.342Z,62.71
2019-02-23T07:09:47.299Z,63.23
2019-02-23T07:10:47.293Z,62.08
2019-02-23T07:11:47.275Z,61.87
2019-02-23T07:12:47.266Z,61.84
2019-02-23T07:13:47.251Z,61.94
2019-02-23T07:14:47.244Z,61.74
2019-02-23T07:15:47.239Z,62.26
2019-02-23T07:16:47.256Z,61.71
2019-02-23T07:17:47.214Z,61.05
2019-02-23T07:18:47.198Z,60.42
2019-02-23T07:19:47.189Z,60.19
2019-02-23T07:20:47.193Z,60.39
2019-02-23T07:21:47.167Z,60.26
2019-02-23T07:22:47.161Z,59.32
2019-02-23T07:23:47.151Z,58.27
2019-02-23T07:24:51.014Z,59.00
2019-02-23T07:25:47.135Z,58.25
2019-02-23T07:26:47.165Z,57.40
2019-02-23T07:27:47.539Z,56.75
2019-02-23T07:28:47.102Z,55.68
2019-02-23T07:29:48.085Z,55.55
2019-02-23T07:30:47.108Z,55.55
2019-02-23T07:31:47.090Z,55.13
2019-02-23T07:32:47.057Z,55.32
2019-02-23T07:33:47.059Z,54.17
2019-02-23T07:34:47.039Z,51.56
2019-02-23T07:35:47.041Z,51.46
2019-02-23T07:36:47.016Z,52.13
2019-02-23T07:37:47.000Z,53.17
2019-02-23T07:38:46.984Z,52.81
2019-02-23T07:39:48.529Z,52.08
2019-02-23T07:40:46.973Z,51.77
2019-02-23T07:41:46.959Z,52.00
2019-02-23T07:42:46.951Z,52.49
2019-02-23T07:43:48.565Z,54.94
2019-02-23T07:44:48.549Z,56.10
2019-02-23T07:45:46.938Z,56.02
2019-02-23T07:46:46.919Z,55.63
2019-02-23T07:47:46.900Z,53.75
2019-02-23T07:48:46.891Z,51.72
2019-02-23T07:49:46.985Z,50.48
2019-02-23T07:50:46.879Z,48.17
2019-02-23T07:51:48.517Z,47.99
2019-02-23T07:52:46.854Z,46.67
2019-02-23T07:53:46.831Z,45.76
2019-02-23T07:54:46.819Z,44.41
2019-02-23T07:55:46.817Z,44.41
2019-02-23T07:56:46.813Z,43.27
2019-02-23T07:57:46.797Z,43.76
2019-02-23T07:58:46.796Z,43.06
2019-02-23T07:59:47.053Z,43.04
2019-02-23T08:00:47.055Z,42.19
2019-02-23T08:01:48.571Z,42.38
2019-02-23T08:02:46.765Z,40.97
2019-02-23T08:03:47.064Z,41.55
2019-02-23T08:04:46.720Z,42.87
2019-02-23T08:05:46.710Z,43.62
2019-02-23T08:06:50.534Z,44.55
2019-02-23T08:07:48.532Z,43.97
2019-02-23T08:08:46.688Z,44.99
2019-02-23T08:09:46.663Z,44.15
2019-02-23T08:10:46.657Z,45.86
2019-02-23T08:11:46.639Z,44.80
2019-02-23T08:12:46.656Z,45.20
2019-02-23T08:13:46.628Z,45.24
2019-02-23T08:14:50.533Z,42.13
2019-02-23T08:15:46.605Z,40.28
2019-02-23T08:16:46.592Z,37.54
2019-02-23T08:17:46.576Z,38.11
2019-02-23T08:18:46.569Z,39.06
2019-02-23T08:19:46.558Z,38.21
2019-02-23T08:20:46.539Z,38.57
2019-02-23T08:21:46.541Z,39.25
2019-02-23T08:22:46.535Z,38.66
2019-02-23T08:23:46.513Z,38.66
2019-02-23T08:24:46.511Z,39.75
2019-02-23T08:25:46.521Z,39.25
2019-02-23T08:26:46.473Z,37.15
2019-02-23T08:27:46.477Z,35.84
2019-02-23T08:28:46.473Z,34.62
2019-02-23T08:29:47.289Z,35.03
2019-02-23T08:30:46.443Z,34.16
2019-02-23T08:31:46.533Z,34.69
2019-02-23T08:32:46.424Z,35.60
2019-02-23T08:33:48.056Z,37.15
2019-02-23T08:34:46.403Z,35.57
2019-02-23T08:35:46.396Z,36.03
2019-02-23T08:36:46.387Z,36.22
2019-02-23T08:37:46.362Z,33.80
2019-02-23T08:38:46.369Z,34.19
2019-02-23T08:39:46.357Z,34.88
2019-02-23T08:40:46.329Z,32.67
2019-02-23T08:41:46.331Z,32.38
2019-02-23T08:42:46.310Z,32.62
2019-02-23T08:43:46.299Z,32.38
2019-02-23T08:44:46.293Z,31.31
2019-02-23T08:45:46.278Z,31.60
2019-02-23T08:46:46.271Z,32.50
2019-02-23T08:47:46.261Z,32.62
2019-02-23T08:48:46.244Z,32.69
2019-02-23T08:49:46.233Z,32.51
2019-02-23T08:50:46.220Z,32.57
2019-02-23T08:51:46.217Z,31.15
2019-02-23T08:52:49.943Z,32.10
2019-02-23T08:53:46.203Z,33.28
2019-02-23T08:54:46.175Z,33.66
2019-02-23T08:55:46.174Z,33.20
2019-02-23T08:56:46.160Z,29.94
2019-02-23T08:57:46.154Z,29.64
2019-02-23T08:58:46.167Z,27.96
2019-02-23T08:59:46.125Z,27.60
2019-02-23T09:00:46.113Z,26.91
2019-02-23T09:01:46.110Z,26.49
2019-02-23T09:02:46.102Z,27.14
2019-02-23T09:03:46.093Z,27.50
2019-02-23T09:04:46.085Z,29.96
2019-02-23T09:05:46.059Z,31.90
2019-02-23T09:06:46.051Z,33.46
2019-02-23T09:07:46.040Z,33.98
2019-02-23T09:08:46.037Z,33.14
2019-02-23T09:09:46.037Z,32.50
2019-02-23T09:10:46.005Z,32.66
2019-02-23T09:11:46.049Z,30.93
2019-02-23T09:12:45.988Z,30.57
2019-02-23T09:13:45.985Z,31.29
2019-02-23T09:14:45.975Z,30.44
2019-02-23T09:15:45.988Z,30.56
2019-02-23T09:16:45.965Z,30.19
2019-02-23T09:17:45.931Z,31.21
2019-02-23T09:18:45.927Z,30.25
2019-02-23T09:19:45.913Z,30.73
2019-02-23T09:20:45.902Z,32.65
2019-02-23T09:21:45.915Z,32.22
2019-02-23T09:22:45.892Z,32.53
2019-02-23T09:23:45.870Z,32.60
2019-02-23T09:24:45.875Z,32.79
2019-02-23T09:25:45.862Z,32.35
2019-02-23T09:26:45.853Z,29.94
2019-02-23T09:27:45.856Z,30.97
2019-02-23T09:28:45.821Z,32.09
2019-02-23T09:29:45.805Z,31.13
2019-02-23T09:30:45.819Z,30.07
2019-02-23T09:31:45.790Z,28.72
2019-02-23T09:32:45.804Z,29.85
2019-02-23T09:33:45.765Z,30.16
2019-02-23T09:34:45.755Z,30.06
2019-02-23T09:35:45.745Z,30.94
2019-02-23T09:36:47.565Z,31.56
2019-02-23T09:37:45.744Z,31.75
2019-02-23T09:38:45.728Z,31.78
2019-02-23T09:39:45.719Z,33.11
2019-02-23T09:40:45.694Z,31.85
2019-02-23T09:41:45.681Z,30.35
2019-02-23T09:42:45.685Z,28.69
2019-02-23T09:43:45.677Z,28.99
2019-02-23T09:44:45.661Z,27.75
2019-02-23T09:45:45.631Z,29.00
2019-02-23T09:46:45.641Z,29.61
2019-02-23T09:47:45.643Z,28.66
2019-02-23T09:48:45.627Z,30.14
2019-02-23T09:49:45.605Z,30.77
2019-02-23T09:50:45.600Z,30.85
2019-02-23T09:51:45.577Z,31.85
2019-02-23T09:52:45.566Z,30.18
2019-02-23T09:53:45.551Z,28.85
2019-02-23T09:54:45.537Z,31.05
2019-02-23T09:55:45.543Z,32.40
2019-02-23T09:56:45.533Z,32.10
2019-02-23T09:57:45.522Z,31.59
2019-02-23T09:58:45.499Z,30.65
2019-02-23T09:59:45.492Z,31.26
2019-02-23T10:00:45.478Z,30.33
2019-02-23T10:01:45.481Z,31.52
2019-02-23T10:02:45.483Z,31.94
2019-02-23T10:03:45.453Z,32.80
2019-02-23T10:04:45.439Z,31.54
2019-02-23T10:05:45.439Z,31.68
2019-02-23T10:06:45.429Z,33.01
2019-02-23T10:07:45.435Z,31.44
2019-02-23T10:08:45.398Z,31.04
2019-02-23T10:09:45.388Z,31.05
2019-02-23T10:10:45.452Z,32.29
2019-02-23T10:11:45.364Z,31.88
2019-02-23T10:12:45.361Z,32.29
2019-02-23T10:13:45.355Z,32.52
2019-02-23T10:14:45.324Z,33.23
2019-02-23T10:15:45.313Z,33.95
2019-02-23T10:16:45.303Z,34.61
2019-02-23T10:17:45.302Z,33.62
2019-02-23T10:18:45.300Z,33.01
2019-02-23T10:19:45.271Z,32.57
2019-02-23T10:20:45.265Z,32.37
2019-02-23T10:21:45.262Z,32.98
2019-02-23T10:22:45.253Z,32.07
2019-02-23T10:23:45.254Z,31.66
2019-02-23T10:24:45.238Z,31.85
2019-02-23T10:25:45.233Z,31.65
2019-02-23T10:26:45.193Z,31.65
2019-02-23T10:27:45.203Z,31.72
2019-02-23T10:28:45.203Z,29.86
2019-02-23T10:29:45.173Z,30.49
2019-02-23T10:30:45.171Z,31.09
2019-02-23T10:31:45.148Z,30.44
2019-02-23T10:32:45.140Z,29.49
2019-02-23T10:33:47.611Z,29.05
2019-02-23T10:34:45.115Z,28.02
2019-02-23T10:35:45.118Z,27.81
2019-02-23T10:36:45.124Z,28.44
2019-02-23T10:37:46.579Z,28.89
2019-02-23T10:38:45.095Z,30.49
2019-02-23T10:39:45.071Z,30.29
2019-02-23T10:40:45.071Z,31.52
2019-02-23T10:41:46.609Z,29.97
2019-02-23T10:42:45.056Z,30.80
2019-02-23T10:43:45.037Z,31.01
2019-02-23T10:44:46.621Z,30.39
2019-02-23T10:45:45.055Z,30.29
2019-02-23T10:46:46.619Z,30.70
2019-02-23T10:47:44.993Z,29.58
2019-02-23T10:48:48.585Z,30.20
2019-02-23T10:49:47.611Z,31.23
2019-02-23T10:50:45.943Z,30.39
2019-02-23T10:51:46.613Z,29.63
2019-02-23T10:52:46.927Z,29.74
2019-02-23T10:53:51.605Z,28.80
2019-02-23T10:54:47.285Z,28.59
2019-02-23T10:55:48.600Z,29.33
2019-02-23T10:56:45.873Z,30.35
2019-02-23T10:57:44.869Z,30.07
2019-02-23T10:58:45.868Z,29.74
2019-02-23T10:59:46.609Z,29.72
2019-02-23T11:00:46.602Z,29.12
2019-02-23T11:01:44.835Z,31.71
2019-02-23T11:02:46.614Z,30.20
2019-02-23T11:03:47.621Z,30.74
2019-02-23T11:04:45.797Z,31.97
2019-02-23T11:05:46.633Z,30.40
2019-02-23T11:06:48.595Z,31.66
2019-02-23T11:07:44.786Z,31.96
2019-02-23T11:08:45.767Z,30.99
2019-02-23T11:09:47.597Z,30.91
2019-02-23T11:10:45.729Z,31.63
2019-02-23T11:11:48.473Z,30.46
2019-02-23T11:12:44.712Z,30.98
2019-02-23T11:13:44.767Z,30.54
2019-02-23T11:14:46.594Z,31.15
2019-02-23T11:15:46.652Z,30.73
2019-02-23T11:16:44.662Z,30.63
2019-02-23T11:17:44.653Z,29.90
2019-02-23T11:18:44.648Z,29.61
2019-02-23T11:19:44.639Z,31.82
2019-02-23T11:20:44.622Z,31.73
2019-02-23T11:21:44.609Z,31.02
2019-02-23T11:22:44.619Z,30.91
2019-02-23T11:23:44.723Z,31.44
2019-02-23T11:24:44.576Z,31.41
2019-02-23T11:25:44.581Z,30.98
2019-02-23T11:26:46.096Z,31.93
2019-02-23T11:27:44.557Z,31.94
2019-02-23T11:28:44.539Z,31.94
2019-02-23T11:29:44.526Z,33.06
2019-02-23T11:30:44.525Z,28.81
2019-02-23T11:31:46.129Z,27.78
2019-02-23T11:32:44.494Z,27.16
2019-02-23T11:33:44.507Z,28.19
2019-02-23T11:34:44.485Z,29.43
2019-02-23T11:35:48.127Z,28.70
2019-02-23T11:36:44.469Z,28.30
2019-02-23T11:37:46.115Z,28.00
2019-02-23T11:38:44.437Z,28.32
2019-02-23T11:39:44.433Z,28.53
2019-02-23T11:40:44.405Z,29.57
2019-02-23T11:41:44.396Z,30.00
2019-02-23T11:42:44.405Z,31.35
2019-02-23T11:43:44.382Z,30.93
2019-02-23T11:44:44.367Z,30.85
2019-02-23T11:45:44.398Z,32.00
2019-02-23T11:46:59.380Z,31.68
2019-02-23T11:47:45.327Z,31.97
2019-02-23T11:48:46.112Z,31.56
2019-02-23T11:49:44.321Z,31.84
2019-02-23T11:50:44.343Z,32.06
2019-02-23T11:51:44.291Z,31.56
2019-02-23T11:52:44.282Z,32.59
2019-02-23T11:53:54.406Z,31.65
2019-02-23T11:54:45.276Z,31.63
2019-02-23T11:55:44.263Z,32.59
2019-02-23T11:56:44.251Z,33.20
2019-02-23T11:57:44.223Z,32.59
2019-02-23T11:58:44.217Z,31.79
2019-02-23T11:59:44.223Z,32.62
2019-02-23T12:00:44.249Z,33.12
2019-02-23T12:01:44.193Z,33.73
2019-02-23T12:02:52.066Z,33.09
2019-02-23T12:03:45.166Z,33.40
2019-02-23T12:04:44.149Z,32.49
2019-02-23T12:05:44.176Z,32.59
2019-02-23T12:06:44.153Z,33.20
2019-02-23T12:07:44.167Z,32.06
2019-02-23T12:08:44.118Z,32.49
2019-02-23T12:09:44.097Z,31.66
2019-02-23T12:10:44.093Z,31.75
2019-02-23T12:11:44.087Z,31.73
2019-02-23T12:12:44.079Z,31.84
2019-02-23T12:13:44.067Z,32.04
2019-02-23T12:14:44.037Z,31.94
2019-02-23T12:15:44.026Z,32.04
2019-02-23T12:16:44.036Z,33.18
2019-02-23T12:17:44.032Z,32.03
2019-02-23T12:18:44.016Z,32.35
2019-02-23T12:19:43.993Z,32.22
2019-02-23T12:20:43.985Z,33.05
2019-02-23T12:21:43.975Z,32.53
2019-02-23T12:22:43.953Z,33.03
2019-02-23T12:23:44.008Z,33.33
2019-02-23T12:24:43.947Z,32.31
2019-02-23T12:25:43.927Z,31.69
2019-02-23T12:26:43.951Z,31.26
2019-02-23T12:27:44.029Z,31.37
2019-02-23T12:28:43.899Z,30.98
2019-02-23T12:29:43.915Z,30.45
2019-02-23T12:30:43.869Z,30.88
2019-02-23T12:31:43.862Z,31.62
2019-02-23T12:32:43.849Z,31.73
2019-02-23T12:33:43.935Z,31.54
2019-02-23T12:34:43.997Z,31.02
2019-02-23T12:35:43.841Z,32.16
2019-02-23T12:36:43.808Z,31.63
2019-02-23T12:37:43.795Z,32.67
2019-02-23T12:38:43.781Z,31.52
2019-02-23T12:39:43.777Z,31.63
2019-02-23T12:40:43.777Z,32.77
2019-02-23T12:41:43.746Z,32.80
2019-02-23T12:42:43.735Z,33.94
2019-02-23T12:43:43.737Z,33.92
2019-02-23T12:44:43.749Z,34.03
2019-02-23T12:45:43.710Z,33.30
2019-02-23T12:46:43.711Z,32.57
2019-02-23T12:47:43.712Z,32.87
2019-02-23T12:48:43.674Z,32.87
2019-02-23T12:49:45.729Z,33.20
2019-02-23T12:50:43.697Z,33.21
2019-02-23T12:51:43.660Z,34.04
2019-02-23T12:52:43.622Z,34.04